createdAt,value
2018-06-04T00:00:28.843Z,16.80
2018-06-04T00:01:02.136Z,16.70
2018-06-04T00:01:35.340Z,16.80
2018-06-04T00:02:08.598Z,16.80
2018-06-04T00:02:41.888Z,16.70
2018-06-04T00:03:15.128Z,16.90
2018-06-04T00:03:48.346Z,16.80
2018-06-04T00:04:21.590Z,16.90
2018-06-04T00:04:54.832Z,16.80
2018-06-04T00:05:28.076Z,17.00
2018-06-04T00:06:01.336Z,16.90
2018-06-04T00:06:34.574Z,17.00
2018-06-04T00:07:07.814Z,16.90
2018-06-04T00:07:41.070Z,17.00
2018-06-04T00:08:14.370Z,17.00
2018-06-04T00:08:47.616Z,17.00
2018-06-04T00:09:20.864Z,17.00
2018-06-04T00:09:54.185Z,17.10
2018-06-04T00:10:27.442Z,17.10
2018-06-04T00:11:00.676Z,17.10
2018-06-04T00:11:33.970Z,17.10
2018-06-04T00:12:07.216Z,17.10
2018-06-04T00:12:40.472Z,17.20
2018-06-04T00:13:13.755Z,17.10
2018-06-04T00:13:46.992Z,17.10
2018-06-04T00:14:20.270Z,17.10
2018-06-04T00:14:53.484Z,17.10
2018-06-04T00:15:26.700Z,17.00
2018-06-04T00:15:59.920Z,17.20
2018-06-04T00:16:33.178Z,17.10
2018-06-04T00:17:06.452Z,17.10
2018-06-04T00:17:39.682Z,17.00
2018-06-04T00:18:12.936Z,16.90
2018-06-04T00:18:46.205Z,16.80
2018-06-04T00:19:19.414Z,16.80
2018-06-04T00:19:52.708Z,16.90
2018-06-04T00:20:25.931Z,16.90
2018-06-04T00:20:59.140Z,16.90
2018-06-04T00:21:32.363Z,16.70
2018-06-04T00:22:05.642Z,16.70
2018-06-04T00:22:38.885Z,16.50
2018-06-04T00:23:12.090Z,16.50
2018-06-04T00:23:45.316Z,16.50
2018-06-04T00:24:18.600Z,16.50
2018-06-04T00:24:51.868Z,16.60
2018-06-04T00:25:25.118Z,16.60
2018-06-04T00:25:58.429Z,16.60
2018-06-04T00:26:31.654Z,16.70
2018-06-04T00:27:04.920Z,16.70
2018-06-04T00:27:38.277Z,16.60
2018-06-04T00:28:11.486Z,16.90
2018-06-04T00:28:44.727Z,16.80
2018-06-04T00:29:17.985Z,16.70
2018-06-04T00:29:51.191Z,16.70
2018-06-04T00:30:24.492Z,16.60
2018-06-04T00:30:57.729Z,16.70
2018-06-04T00:31:30.969Z,16.50
2018-06-04T00:32:04.224Z,16.50
2018-06-04T00:32:37.406Z,16.50
2018-06-04T00:33:10.645Z,16.50
2018-06-04T00:33:43.865Z,16.70
2018-06-04T00:34:17.078Z,16.70
2018-06-04T00:34:50.313Z,16.50
2018-06-04T00:35:23.560Z,16.50
2018-06-04T00:35:56.785Z,16.60
2018-06-04T00:36:29.992Z,16.60
2018-06-04T00:37:03.246Z,16.60
2018-06-04T00:37:36.485Z,16.70
2018-06-04T00:38:09.707Z,16.70
2018-06-04T00:38:42.915Z,16.70
2018-06-04T00:39:16.139Z,16.70
2018-06-04T00:39:49.401Z,16.70
2018-06-04T00:40:22.624Z,16.80
2018-06-04T00:40:55.877Z,16.70
2018-06-04T00:41:29.125Z,16.80
2018-06-04T00:42:02.355Z,16.70
2018-06-04T00:42:35.580Z,16.60
2018-06-04T00:43:08.812Z,16.70
2018-06-04T00:43:42.031Z,16.70
2018-06-04T00:44:15.247Z,16.60
2018-06-04T00:44:48.703Z,16.70
2018-06-04T00:45:21.935Z,16.70
2018-06-04T00:45:55.178Z,16.70
2018-06-04T00:46:28.397Z,16.80
2018-06-04T00:47:01.681Z,16.90
2018-06-04T00:47:34.903Z,16.80
2018-06-04T00:48:08.100Z,16.80
2018-06-04T00:48:41.311Z,16.80
2018-06-04T00:49:14.542Z,16.80
2018-06-04T00:49:47.759Z,16.80
2018-06-04T00:50:21.032Z,16.90
2018-06-04T00:50:54.267Z,16.80
2018-06-04T00:51:27.555Z,16.80
2018-06-04T00:52:00.798Z,16.80
2018-06-04T00:52:34.031Z,16.80
2018-06-04T00:53:07.255Z,16.90
2018-06-04T00:56:24.655Z,17.00
2018-06-04T00:56:57.889Z,16.90
2018-06-04T00:57:31.097Z,16.80
2018-06-04T00:58:05.116Z,16.80
2018-06-04T00:58:38.299Z,16.80
2018-06-04T00:59:11.481Z,16.90
2018-06-04T00:59:44.715Z,16.90
2018-06-04T01:00:17.971Z,16.90
2018-06-04T01:00:51.225Z,16.70
2018-06-04T01:01:24.491Z,16.70
2018-06-04T01:01:57.727Z,16.80
2018-06-04T01:02:30.913Z,16.50
2018-06-04T01:03:04.171Z,16.60
2018-06-04T01:03:37.409Z,16.60
2018-06-04T01:04:10.620Z,16.80
2018-06-04T01:04:43.851Z,16.80
2018-06-04T01:05:17.079Z,16.80
2018-06-04T01:05:50.283Z,16.90
2018-06-04T01:06:23.623Z,16.90
2018-06-04T01:06:56.831Z,16.90
2018-06-04T01:07:30.098Z,16.80
2018-06-04T01:08:03.311Z,16.90
2018-06-04T01:08:36.589Z,16.70
2018-06-04T01:09:10.002Z,16.60
2018-06-04T01:09:43.315Z,16.60
2018-06-04T01:10:16.559Z,16.80
2018-06-04T01:10:49.833Z,16.60
2018-06-04T01:11:23.091Z,16.60
2018-06-04T01:11:56.387Z,16.60
2018-06-04T01:12:29.633Z,16.70
2018-06-04T01:13:02.927Z,16.70
2018-06-04T01:13:36.173Z,16.80
2018-06-04T01:14:09.532Z,16.70
2018-06-04T01:14:42.768Z,16.70
2018-06-04T01:15:15.975Z,16.80
2018-06-04T01:15:49.256Z,16.80
2018-06-04T01:16:22.593Z,16.80
2018-06-04T01:16:55.825Z,16.70
2018-06-04T01:17:29.063Z,16.70
2018-06-04T01:18:02.292Z,16.70
2018-06-04T01:18:36.309Z,16.80
2018-06-04T01:19:09.596Z,16.80
2018-06-04T01:19:42.891Z,16.90
2018-06-04T01:20:16.129Z,16.70
2018-06-04T01:20:49.368Z,16.70
2018-06-04T01:21:22.603Z,16.60
2018-06-04T01:21:55.856Z,16.70
2018-06-04T01:22:29.077Z,16.70
2018-06-04T01:23:02.335Z,16.80
2018-06-04T01:23:35.567Z,16.70
2018-06-04T01:24:08.886Z,16.80
2018-06-04T01:24:42.133Z,16.60
2018-06-04T01:25:15.373Z,16.70
2018-06-04T01:25:48.612Z,16.80
2018-06-04T01:26:21.868Z,16.80
2018-06-04T01:26:55.072Z,16.70
2018-06-04T01:27:28.298Z,16.80
2018-06-04T01:28:01.555Z,16.70
2018-06-04T01:28:34.784Z,16.70
2018-06-04T01:29:08.052Z,16.80
2018-06-04T01:29:41.273Z,16.70
2018-06-04T01:30:14.511Z,16.70
2018-06-04T01:30:47.804Z,16.60
2018-06-04T01:31:21.035Z,16.60
2018-06-04T01:31:54.262Z,16.60
2018-06-04T01:32:27.636Z,16.70
2018-06-04T01:33:00.950Z,16.60
2018-06-04T01:33:34.217Z,16.60
2018-06-04T01:34:07.425Z,16.50
2018-06-04T01:34:40.665Z,16.50
2018-06-04T01:35:13.890Z,16.50
2018-06-04T01:35:47.095Z,16.60
2018-06-04T01:36:20.360Z,16.50
2018-06-04T01:36:53.605Z,16.70
2018-06-04T01:37:26.801Z,16.50
2018-06-04T01:38:00.090Z,16.60
2018-06-04T01:38:33.316Z,16.50
2018-06-04T01:39:07.674Z,16.50
2018-06-04T01:39:40.916Z,16.50
2018-06-04T01:40:14.159Z,16.60
2018-06-04T01:40:47.450Z,16.50
2018-06-04T01:41:20.688Z,16.60
2018-06-04T01:41:53.995Z,16.60
2018-06-04T01:42:27.303Z,16.70
2018-06-04T01:43:00.561Z,16.60
2018-06-04T01:43:33.799Z,16.60
2018-06-04T01:44:07.048Z,16.70
2018-06-04T01:44:40.321Z,16.70
2018-06-04T01:45:13.571Z,16.70
2018-06-04T01:45:46.854Z,16.60
2018-06-04T01:46:20.123Z,16.70
2018-06-04T01:46:53.356Z,16.60
2018-06-04T01:47:26.624Z,16.60
2018-06-04T01:47:59.884Z,16.70
2018-06-04T01:48:33.112Z,16.60
2018-06-04T01:49:06.376Z,16.60
2018-06-04T01:49:39.584Z,16.60
2018-06-04T01:50:12.830Z,16.60
2018-06-04T01:50:46.059Z,16.70
2018-06-04T01:51:19.305Z,16.70
2018-06-04T01:51:52.566Z,16.70
2018-06-04T01:52:25.849Z,16.70
2018-06-04T01:52:59.054Z,16.60
2018-06-04T01:53:32.297Z,16.60
2018-06-04T01:54:05.546Z,16.70
2018-06-04T01:54:38.743Z,16.60
2018-06-04T01:55:11.952Z,16.70
2018-06-04T01:55:45.176Z,16.60
2018-06-04T01:56:18.431Z,16.60
2018-06-04T01:56:51.681Z,16.50
2018-06-04T01:57:24.892Z,16.50
2018-06-04T01:57:58.123Z,16.60
2018-06-04T01:58:31.395Z,16.70
2018-06-04T01:59:04.676Z,16.60
2018-06-04T01:59:37.923Z,16.70
2018-06-04T02:00:11.190Z,16.70
2018-06-04T02:00:44.490Z,16.80
2018-06-04T02:01:17.805Z,16.80
2018-06-04T02:01:51.166Z,16.80
2018-06-04T02:02:24.390Z,16.80
2018-06-04T02:02:57.790Z,16.80
2018-06-04T02:03:31.012Z,16.70
2018-06-04T02:04:04.274Z,16.70
2018-06-04T02:04:37.510Z,16.80
2018-06-04T02:05:10.739Z,16.80
2018-06-04T02:05:43.984Z,16.90
2018-06-04T02:06:17.224Z,16.60
2018-06-04T02:06:50.600Z,16.70
2018-06-04T02:07:23.862Z,16.80
2018-06-04T02:07:57.104Z,16.80
2018-06-04T02:08:30.316Z,16.80
2018-06-04T02:09:05.068Z,16.80
2018-06-04T02:09:38.325Z,16.90
2018-06-04T02:10:11.614Z,16.80
2018-06-04T02:10:44.854Z,16.60
2018-06-04T02:11:18.181Z,16.80
2018-06-04T02:11:51.387Z,16.70
2018-06-04T02:12:24.677Z,16.60
2018-06-04T02:12:57.906Z,16.70
2018-06-04T02:13:31.108Z,16.60
2018-06-04T02:14:04.399Z,16.50
2018-06-04T02:14:37.615Z,16.50
2018-06-04T02:15:10.853Z,16.50
2018-06-04T02:15:44.102Z,16.50
2018-06-04T02:16:17.302Z,16.60
2018-06-04T02:16:50.542Z,16.50
2018-06-04T02:17:23.986Z,16.60
2018-06-04T02:17:57.258Z,16.50
2018-06-04T02:18:30.492Z,16.40
2018-06-04T02:19:04.116Z,16.40
2018-06-04T02:19:37.392Z,16.30
2018-06-04T02:20:10.637Z,16.40
2018-06-04T02:20:43.904Z,16.40
2018-06-04T02:21:17.136Z,16.40
2018-06-04T02:21:50.379Z,16.40
2018-06-04T02:22:23.595Z,16.40
2018-06-04T02:22:56.830Z,16.40
2018-06-04T02:23:30.029Z,16.40
2018-06-04T02:24:03.260Z,16.40
2018-06-04T02:24:36.516Z,16.40
2018-06-04T02:25:09.756Z,16.30
2018-06-04T02:25:42.993Z,16.40
2018-06-04T02:26:16.212Z,16.50
2018-06-04T02:26:49.442Z,16.50
2018-06-04T02:27:22.678Z,16.40
2018-06-04T02:27:55.892Z,16.40
2018-06-04T02:28:29.134Z,16.40
2018-06-04T02:29:02.374Z,16.40
2018-06-04T02:29:35.602Z,16.40
2018-06-04T02:30:08.814Z,16.40
2018-06-04T02:30:42.096Z,16.40
2018-06-04T02:31:15.410Z,16.60
2018-06-04T02:31:48.691Z,16.50
2018-06-04T02:32:21.942Z,16.30
2018-06-04T02:32:55.186Z,16.40
2018-06-04T02:33:28.416Z,16.30
2018-06-04T02:34:01.617Z,16.40
2018-06-04T02:34:34.862Z,16.20
2018-06-04T02:35:08.139Z,16.40
2018-06-04T02:35:41.367Z,16.30
2018-06-04T02:36:14.643Z,16.30
2018-06-04T02:36:47.862Z,16.30
2018-06-04T02:37:21.103Z,16.40
2018-06-04T02:37:54.396Z,16.40
2018-06-04T02:38:27.613Z,16.30
2018-06-04T02:39:00.828Z,16.30
2018-06-04T02:39:34.062Z,16.40
2018-06-04T02:40:07.336Z,16.40
2018-06-04T02:40:40.606Z,16.40
2018-06-04T02:41:13.819Z,16.30
2018-06-04T02:41:47.138Z,16.40
2018-06-04T02:42:20.400Z,16.40
2018-06-04T02:42:53.606Z,16.40
2018-06-04T02:43:26.879Z,16.50
2018-06-04T02:44:00.134Z,16.50
2018-06-04T02:44:33.362Z,16.60
2018-06-04T02:45:06.621Z,16.60
2018-06-04T02:45:39.874Z,16.70
2018-06-04T02:46:13.096Z,16.70
2018-06-04T02:46:46.333Z,16.70
2018-06-04T02:47:19.662Z,16.70
2018-06-04T02:47:52.891Z,16.70
2018-06-04T02:48:26.147Z,16.70
2018-06-04T02:48:59.377Z,16.80
2018-06-04T02:49:32.605Z,16.80
2018-06-04T02:50:06.104Z,16.90
2018-06-04T02:50:39.186Z,16.80
2018-06-04T02:51:12.436Z,16.90
2018-06-04T02:51:45.647Z,16.90
2018-06-04T02:52:18.876Z,17.00
2018-06-04T02:52:52.116Z,17.00
2018-06-04T02:53:25.360Z,17.00
2018-06-04T02:53:58.622Z,16.90
2018-06-04T02:54:31.946Z,16.90
2018-06-04T02:55:05.206Z,16.90
2018-06-04T02:55:38.424Z,16.90
2018-06-04T02:56:11.736Z,16.90
2018-06-04T02:56:44.980Z,16.90
2018-06-04T02:57:18.220Z,16.80
2018-06-04T02:57:51.514Z,16.80
2018-06-04T02:58:24.777Z,16.70
2018-06-04T02:58:58.002Z,16.80
2018-06-04T02:59:31.274Z,16.60
2018-06-04T03:00:04.940Z,16.70
2018-06-04T03:00:38.204Z,16.70
2018-06-04T03:01:11.475Z,16.80
2018-06-04T03:01:44.720Z,16.70
2018-06-04T03:02:17.967Z,16.60
2018-06-04T03:02:51.264Z,16.70
2018-06-04T03:03:24.480Z,16.70
2018-06-04T03:03:57.674Z,16.80
2018-06-04T03:04:30.922Z,16.70
2018-06-04T03:05:04.208Z,16.70
2018-06-04T03:05:37.548Z,16.70
2018-06-04T03:06:10.802Z,16.80
2018-06-04T03:06:44.055Z,16.70
2018-06-04T03:07:17.317Z,16.70
2018-06-04T03:07:50.495Z,16.50
2018-06-04T03:08:23.728Z,16.50
2018-06-04T03:08:56.928Z,16.50
2018-06-04T03:09:30.182Z,16.50
2018-06-04T03:10:03.525Z,16.30
2018-06-04T03:10:36.768Z,16.30
2018-06-04T03:11:10.046Z,16.20
2018-06-04T03:11:43.332Z,16.30
2018-06-04T03:12:16.550Z,16.40
2018-06-04T03:12:49.806Z,16.20
2018-06-04T03:13:23.053Z,16.20
2018-06-04T03:13:56.301Z,16.30
2018-06-04T03:14:29.560Z,16.40
2018-06-04T03:15:02.812Z,16.40
2018-06-04T03:15:36.034Z,16.20
2018-06-04T03:16:09.273Z,16.10
2018-06-04T03:16:42.952Z,16.30
2018-06-04T03:17:16.178Z,16.20
2018-06-04T03:17:49.444Z,16.30
2018-06-04T03:18:22.669Z,16.20
2018-06-04T03:18:55.888Z,16.20
2018-06-04T03:19:29.129Z,16.20
2018-06-04T03:20:02.392Z,16.20
2018-06-04T03:20:35.605Z,16.20
2018-06-04T03:21:08.848Z,16.20
2018-06-04T03:21:42.082Z,16.20
2018-06-04T03:22:15.317Z,16.20
2018-06-04T03:22:48.565Z,16.20
2018-06-04T03:23:21.800Z,16.20
2018-06-04T03:23:55.043Z,16.20
2018-06-04T03:24:28.262Z,16.30
2018-06-04T03:25:01.502Z,16.20
2018-06-04T03:25:34.724Z,16.20
2018-06-04T03:26:08.050Z,16.20
2018-06-04T03:26:41.252Z,16.20
2018-06-04T03:27:14.517Z,16.20
2018-06-04T03:27:47.762Z,16.20
2018-06-04T03:28:20.985Z,16.20
2018-06-04T03:28:54.204Z,16.20
2018-06-04T03:29:27.420Z,16.30
2018-06-04T03:30:00.631Z,16.20
2018-06-04T03:30:33.882Z,16.10
2018-06-04T03:31:07.153Z,16.10
2018-06-04T03:31:40.635Z,16.00
2018-06-04T03:32:13.889Z,16.10
2018-06-04T03:32:47.091Z,16.20
2018-06-04T03:33:20.311Z,16.20
2018-06-04T03:33:53.528Z,16.10
2018-06-04T03:34:26.817Z,16.20
2018-06-04T03:35:00.034Z,16.10
2018-06-04T03:35:33.235Z,16.20
2018-06-04T03:36:06.473Z,16.20
2018-06-04T03:36:39.685Z,16.20
2018-06-04T03:37:12.936Z,16.40
2018-06-04T03:37:46.159Z,16.30
2018-06-04T03:38:19.377Z,16.40
2018-06-04T03:38:52.624Z,16.40
2018-06-04T03:39:25.847Z,16.40
2018-06-04T03:39:59.116Z,16.40
2018-06-04T03:40:32.328Z,16.40
2018-06-04T03:41:07.273Z,16.50
2018-06-04T03:41:40.513Z,16.60
2018-06-04T03:42:13.744Z,16.60
2018-06-04T03:42:47.211Z,16.50
2018-06-04T03:43:20.435Z,16.50
2018-06-04T03:43:53.679Z,16.60
2018-06-04T03:44:26.944Z,16.50
2018-06-04T03:45:00.147Z,16.70
2018-06-04T03:45:33.352Z,16.60
2018-06-04T03:46:06.634Z,16.70
2018-06-04T03:46:39.847Z,16.70
2018-06-04T03:47:13.139Z,16.70
2018-06-04T03:47:46.356Z,16.60
2018-06-04T03:48:19.581Z,16.60
2018-06-04T03:48:52.789Z,16.60
2018-06-04T03:49:25.987Z,16.60
2018-06-04T03:49:59.229Z,16.50
2018-06-04T03:50:32.432Z,16.50
2018-06-04T03:51:05.708Z,16.50
2018-06-04T03:51:38.971Z,16.50
2018-06-04T03:52:12.156Z,16.50
2018-06-04T03:52:45.351Z,16.50
2018-06-04T03:53:18.565Z,16.60
2018-06-04T03:53:51.807Z,16.50
2018-06-04T03:54:25.003Z,16.70
2018-06-04T03:54:58.193Z,16.80
2018-06-04T03:55:31.401Z,16.80
2018-06-04T03:56:04.630Z,16.90
2018-06-04T03:56:37.863Z,16.70
2018-06-04T03:57:11.076Z,16.70
2018-06-04T03:57:44.326Z,16.80
2018-06-04T03:58:17.582Z,16.70
2018-06-04T03:58:50.811Z,16.70
2018-06-04T03:59:24.052Z,16.60
2018-06-04T03:59:57.254Z,16.50
2018-06-04T04:00:30.481Z,16.50
2018-06-04T04:01:03.835Z,16.60
2018-06-04T04:01:37.072Z,16.60
2018-06-04T04:02:10.299Z,16.50
2018-06-04T04:02:43.496Z,16.50
2018-06-04T04:03:16.763Z,16.50
2018-06-04T04:03:50.012Z,16.60
2018-06-04T04:04:23.241Z,16.60
2018-06-04T04:04:56.496Z,16.60
2018-06-04T04:05:29.804Z,16.70
2018-06-04T04:06:03.105Z,16.80
2018-06-04T04:06:36.608Z,16.70
2018-06-04T04:07:09.833Z,16.70
2018-06-04T04:07:43.171Z,16.80
2018-06-04T04:08:16.492Z,16.70
2018-06-04T04:08:49.671Z,16.70
2018-06-04T04:09:22.917Z,16.60
2018-06-04T04:09:56.145Z,16.60
2018-06-04T04:10:29.383Z,16.80
2018-06-04T04:11:02.611Z,16.80
2018-06-04T04:11:36.034Z,16.80
2018-06-04T04:12:09.268Z,16.70
2018-06-04T04:12:42.534Z,16.70
2018-06-04T04:13:15.747Z,16.90
2018-06-04T04:13:48.979Z,16.70
2018-06-04T04:14:22.191Z,16.80
2018-06-04T04:14:55.422Z,17.00
2018-06-04T04:15:28.680Z,16.90
2018-06-04T04:16:01.941Z,16.90
2018-06-04T04:16:37.224Z,17.00
2018-06-04T04:17:10.488Z,16.90
2018-06-04T04:17:43.766Z,16.80
2018-06-04T04:18:17.064Z,16.90
2018-06-04T04:18:50.274Z,16.90
2018-06-04T04:19:23.606Z,16.90
2018-06-04T04:19:56.813Z,17.00
2018-06-04T04:20:30.089Z,17.00
2018-06-04T04:21:03.314Z,17.00
2018-06-04T04:21:36.571Z,16.90
2018-06-04T04:22:09.804Z,17.00
2018-06-04T04:22:43.044Z,17.10
2018-06-04T04:23:16.254Z,17.00
2018-06-04T04:23:49.531Z,16.90
2018-06-04T04:24:22.756Z,16.90
2018-06-04T04:24:56.055Z,17.00
2018-06-04T04:25:29.319Z,16.90
2018-06-04T04:26:02.521Z,16.90
2018-06-04T04:26:35.743Z,17.00
2018-06-04T04:27:08.998Z,16.90
2018-06-04T04:27:42.262Z,17.00
2018-06-04T04:28:15.477Z,16.80
2018-06-04T04:28:48.700Z,16.70
2018-06-04T04:29:21.937Z,16.70
2018-06-04T04:29:55.150Z,16.80
2018-06-04T04:30:28.527Z,16.70
2018-06-04T04:31:01.756Z,16.90
2018-06-04T04:31:35.048Z,16.70
2018-06-04T04:32:08.285Z,16.70
2018-06-04T04:32:41.502Z,16.70
2018-06-04T04:33:14.759Z,16.60
2018-06-04T04:33:47.997Z,16.60
2018-06-04T04:34:21.184Z,16.70
2018-06-04T04:34:54.417Z,16.60
2018-06-04T04:35:27.594Z,16.60
2018-06-04T04:36:00.819Z,16.40
2018-06-04T04:36:34.033Z,16.60
2018-06-04T04:37:07.251Z,16.60
2018-06-04T04:37:40.540Z,16.60
2018-06-04T04:38:13.739Z,16.60
2018-06-04T04:38:46.947Z,16.60
2018-06-04T04:39:20.225Z,16.50
2018-06-04T04:39:53.452Z,16.70
2018-06-04T04:40:26.687Z,16.70
2018-06-04T04:40:59.923Z,16.80
2018-06-04T04:41:33.499Z,16.80
2018-06-04T04:42:06.778Z,16.80
2018-06-04T04:42:40.053Z,16.80
2018-06-04T04:43:13.271Z,16.90
2018-06-04T04:43:46.535Z,16.90
2018-06-04T04:44:19.723Z,16.90
2018-06-04T04:44:52.995Z,17.10
2018-06-04T04:45:26.253Z,17.10
2018-06-04T04:45:59.499Z,17.00
2018-06-04T04:46:32.791Z,17.00
2018-06-04T04:47:06.036Z,17.00
2018-06-04T04:47:39.266Z,16.90
2018-06-04T04:48:12.474Z,16.80
2018-06-04T04:48:45.713Z,16.70
2018-06-04T04:49:19.009Z,16.60
2018-06-04T04:49:52.263Z,16.70
2018-06-04T04:50:25.506Z,16.70
2018-06-04T04:50:58.733Z,16.60
2018-06-04T04:51:31.962Z,16.60
2018-06-04T04:52:05.222Z,16.60
2018-06-04T04:52:38.475Z,16.70
2018-06-04T04:53:11.714Z,16.80
2018-06-04T04:53:44.921Z,16.90
2018-06-04T04:54:18.169Z,16.90
2018-06-04T04:54:51.381Z,16.80
2018-06-04T04:55:24.650Z,16.80
2018-06-04T04:55:57.899Z,16.80
2018-06-04T04:56:31.153Z,16.80
2018-06-04T04:57:04.430Z,16.70
2018-06-04T04:57:37.655Z,16.70
2018-06-04T04:58:10.985Z,16.50
2018-06-04T04:58:44.233Z,16.50
2018-06-04T04:59:17.477Z,16.60
2018-06-04T04:59:50.722Z,16.50
2018-06-04T05:00:24.041Z,16.50
2018-06-04T05:00:57.225Z,16.60
2018-06-04T05:01:30.479Z,16.60
2018-06-04T05:02:03.741Z,16.50
2018-06-04T05:02:36.967Z,16.50
2018-06-04T05:03:10.231Z,16.60
2018-06-04T05:03:43.420Z,16.70
2018-06-04T05:04:16.648Z,16.60
2018-06-04T05:04:49.868Z,16.60
2018-06-04T05:05:23.123Z,16.60
2018-06-04T05:05:56.351Z,16.70
2018-06-04T05:06:29.574Z,16.60
2018-06-04T05:07:02.809Z,16.70
2018-06-04T05:07:36.031Z,16.70
2018-06-04T05:08:09.267Z,16.70
2018-06-04T05:08:42.519Z,16.80
2018-06-04T05:09:15.733Z,16.80
2018-06-04T05:09:48.963Z,16.80
2018-06-04T05:10:22.208Z,16.80
2018-06-04T05:10:55.465Z,16.80
2018-06-04T05:11:28.675Z,16.80
2018-06-04T05:12:01.896Z,16.80
2018-06-04T05:12:35.163Z,16.90
2018-06-04T05:13:08.427Z,17.10
2018-06-04T05:13:41.635Z,17.00
2018-06-04T05:14:15.207Z,16.90
2018-06-04T05:14:48.451Z,16.90
2018-06-04T05:15:21.702Z,17.00
2018-06-04T05:15:54.923Z,17.10
2018-06-04T05:16:28.177Z,16.90
2018-06-04T05:17:01.417Z,16.90
2018-06-04T05:17:34.667Z,17.00
2018-06-04T05:18:07.871Z,17.00
2018-06-04T05:18:41.087Z,17.00
2018-06-04T05:19:14.337Z,17.10
2018-06-04T05:19:47.577Z,17.10
2018-06-04T05:20:20.805Z,17.20
2018-06-04T05:20:54.028Z,17.10
2018-06-04T05:21:27.369Z,17.10
2018-06-04T05:22:00.599Z,17.00
2018-06-04T05:22:33.813Z,17.10
2018-06-04T05:23:07.047Z,17.10
2018-06-04T05:23:40.223Z,17.10
2018-06-04T05:24:13.469Z,17.00
2018-06-04T05:24:46.679Z,17.20
2018-06-04T05:25:19.901Z,17.00
2018-06-04T05:25:53.373Z,17.00
2018-06-04T05:26:26.617Z,17.10
2018-06-04T05:26:59.855Z,17.10
2018-06-04T05:27:33.063Z,17.10
2018-06-04T05:28:06.293Z,17.10
2018-06-04T05:28:39.518Z,17.00
2018-06-04T05:29:12.719Z,17.20
2018-06-04T05:29:45.960Z,17.20
2018-06-04T05:30:19.182Z,17.20
2018-06-04T05:30:52.398Z,17.10
2018-06-04T05:31:25.621Z,17.10
2018-06-04T05:31:58.844Z,17.10
2018-06-04T05:32:32.055Z,17.30
2018-06-04T05:33:05.354Z,17.20
2018-06-04T05:33:38.629Z,17.30
2018-06-04T05:34:11.873Z,17.30
2018-06-04T05:34:45.107Z,17.40
2018-06-04T05:35:18.393Z,17.30
2018-06-04T05:35:51.618Z,17.30
2018-06-04T05:36:24.855Z,17.50
2018-06-04T05:36:58.089Z,17.50
2018-06-04T05:37:31.359Z,17.60
2018-06-04T05:38:04.641Z,17.50
2018-06-04T05:38:37.845Z,17.50
2018-06-04T05:39:11.287Z,17.40
2018-06-04T05:39:44.511Z,17.60
2018-06-04T05:40:17.767Z,17.50
2018-06-04T05:40:51.007Z,17.40
2018-06-04T05:41:24.248Z,17.50
2018-06-04T05:41:57.505Z,17.70
2018-06-04T05:42:30.732Z,17.60
2018-06-04T05:43:03.977Z,17.50
2018-06-04T05:43:37.193Z,17.70
2018-06-04T05:44:10.483Z,17.60
2018-06-04T05:44:43.723Z,17.80
2018-06-04T05:45:17.017Z,17.80
2018-06-04T05:45:50.635Z,17.90
2018-06-04T05:46:23.851Z,17.90
2018-06-04T05:46:57.087Z,17.90
2018-06-04T05:47:30.305Z,17.90
2018-06-04T05:48:03.627Z,17.90
2018-06-04T05:48:36.875Z,18.00
2018-06-04T05:49:10.087Z,18.00
2018-06-04T05:49:43.393Z,18.00
2018-06-04T05:50:16.623Z,18.10
2018-06-04T05:50:49.855Z,18.20
2018-06-04T05:51:23.081Z,17.90
2018-06-04T05:51:56.319Z,17.90
2018-06-04T05:52:29.576Z,18.10
2018-06-04T05:53:02.796Z,18.00
2018-06-04T05:53:36.041Z,18.10
2018-06-04T05:54:09.573Z,17.80
2018-06-04T05:54:42.947Z,17.90
2018-06-04T05:55:16.205Z,17.80
2018-06-04T05:55:49.465Z,17.80
2018-06-04T05:56:22.695Z,17.80
2018-06-04T05:56:55.969Z,17.70
2018-06-04T05:57:29.207Z,17.90
2018-06-04T05:58:02.565Z,17.60
2018-06-04T05:58:35.813Z,17.80
2018-06-04T05:59:09.063Z,17.80
2018-06-04T05:59:42.293Z,17.60
2018-06-04T06:00:15.556Z,17.70
2018-06-04T06:00:48.782Z,17.70
2018-06-04T06:01:22.043Z,17.70
2018-06-04T06:01:55.245Z,17.90
2018-06-04T06:02:28.487Z,17.80
2018-06-04T06:03:01.708Z,17.70
2018-06-04T06:03:34.941Z,17.60
2018-06-04T06:04:08.191Z,17.70
2018-06-04T06:04:41.441Z,17.80
2018-06-04T06:05:14.695Z,17.70
2018-06-04T06:05:47.969Z,17.80
2018-06-04T06:06:21.211Z,17.90
2018-06-04T06:06:54.439Z,18.00
2018-06-04T06:07:27.665Z,18.00
2018-06-04T06:08:00.942Z,18.10
2018-06-04T06:08:34.164Z,18.10
2018-06-04T06:09:09.492Z,18.20
2018-06-04T06:09:42.703Z,18.30
2018-06-04T06:10:15.943Z,18.20
2018-06-04T06:11:20.165Z,18.20
2018-06-04T06:11:53.385Z,18.30
2018-06-04T06:12:26.653Z,18.30
2018-06-04T06:12:59.856Z,18.20
2018-06-04T06:13:33.107Z,18.20
2018-06-04T06:14:06.351Z,18.30
2018-06-04T06:14:39.615Z,18.40
2018-06-04T06:15:12.865Z,18.40
2018-06-04T06:15:46.095Z,18.50
2018-06-04T06:16:19.330Z,18.50
2018-06-04T06:16:52.645Z,18.50
2018-06-04T06:17:25.870Z,18.50
2018-06-04T06:17:59.075Z,18.60
2018-06-04T06:18:32.288Z,18.20
2018-06-04T06:19:05.535Z,18.30
2018-06-04T06:19:38.738Z,18.40
2018-06-04T06:20:11.971Z,18.50
2018-06-04T06:20:45.183Z,18.40
2018-06-04T06:21:18.437Z,18.30
2018-06-04T06:21:51.678Z,18.30
2018-06-04T06:22:24.887Z,18.40
2018-06-04T06:22:58.135Z,18.40
2018-06-04T06:23:31.408Z,18.30
2018-06-04T06:24:04.641Z,18.40
2018-06-04T06:24:37.866Z,18.30
2018-06-04T06:25:11.083Z,18.30
2018-06-04T06:25:44.321Z,18.20
2018-06-04T06:26:17.795Z,18.00
2018-06-04T06:26:50.987Z,18.20
2018-06-04T06:27:24.229Z,18.30
2018-06-04T06:27:57.488Z,18.30
2018-06-04T06:28:30.704Z,18.30
2018-06-04T06:29:03.993Z,18.20
2018-06-04T06:29:37.227Z,18.20
2018-06-04T06:30:10.419Z,18.30
2018-06-04T06:30:43.686Z,18.20
2018-06-04T06:31:16.900Z,18.20
2018-06-04T06:31:50.125Z,18.20
2018-06-04T06:32:23.367Z,18.40
2018-06-04T06:32:56.569Z,18.50
2018-06-04T06:33:29.774Z,18.30
2018-06-04T06:34:03.065Z,18.50
2018-06-04T06:34:36.304Z,18.70
2018-06-04T06:35:09.546Z,18.60
2018-06-04T06:35:42.815Z,18.60
2018-06-04T06:36:16.049Z,18.80
2018-06-04T06:36:49.271Z,18.70
2018-06-04T06:37:22.491Z,18.70
2018-06-04T06:37:55.741Z,18.70
2018-06-04T06:38:28.964Z,18.90
2018-06-04T06:39:02.293Z,19.00
2018-06-04T06:39:35.615Z,18.90
2018-06-04T06:40:08.861Z,19.00
2018-06-04T06:40:42.113Z,19.00
2018-06-04T06:41:15.382Z,19.20
2018-06-04T06:41:48.689Z,19.30
2018-06-04T06:42:21.917Z,19.50
2018-06-04T06:42:55.195Z,19.60
2018-06-04T06:43:28.475Z,19.70
2018-06-04T06:44:01.716Z,19.70
2018-06-04T06:44:35.045Z,19.70
2018-06-04T06:45:09.200Z,19.60
2018-06-04T06:45:42.436Z,19.40
2018-06-04T06:46:15.698Z,19.20
2018-06-04T06:46:48.965Z,19.20
2018-06-04T06:47:22.231Z,19.20
2018-06-04T06:47:55.450Z,19.00
2018-06-04T06:48:28.756Z,19.10
2018-06-04T06:49:01.991Z,19.10
2018-06-04T06:49:35.219Z,19.00
2018-06-04T06:50:08.579Z,18.80
2018-06-04T06:50:41.828Z,18.70
2018-06-04T06:51:15.221Z,18.60
2018-06-04T06:51:48.486Z,18.50
2018-06-04T06:52:21.764Z,18.60
2018-06-04T06:52:55.079Z,18.60
2018-06-04T06:53:28.316Z,18.50
2018-06-04T06:54:01.646Z,18.50
2018-06-04T06:54:34.915Z,18.50
2018-06-04T06:55:08.172Z,18.60
2018-06-04T06:55:41.428Z,18.80
2018-06-04T06:56:14.654Z,19.00
2018-06-04T06:56:47.875Z,19.10
2018-06-04T06:57:21.132Z,18.80
2018-06-04T06:57:54.371Z,18.70
2018-06-04T06:58:27.590Z,18.70
2018-06-04T06:59:00.794Z,18.70
2018-06-04T06:59:34.053Z,18.80
2018-06-04T07:00:08.551Z,18.60
2018-06-04T07:00:41.842Z,18.50
2018-06-04T07:01:15.058Z,18.60
2018-06-04T07:01:48.252Z,18.60
2018-06-04T07:02:21.516Z,18.50
2018-06-04T07:02:54.743Z,18.50
2018-06-04T07:03:27.981Z,18.60
2018-06-04T07:04:01.219Z,18.50
2018-06-04T07:04:34.457Z,18.70
2018-06-04T07:05:07.695Z,18.90
2018-06-04T07:05:40.926Z,18.90
2018-06-04T07:06:14.198Z,19.00
2018-06-04T07:06:47.471Z,19.20
2018-06-04T07:07:20.691Z,19.20
2018-06-04T07:07:53.955Z,19.20
2018-06-04T07:08:27.175Z,19.30
2018-06-04T07:09:00.382Z,19.20
2018-06-04T07:09:33.623Z,19.30
2018-06-04T07:10:06.897Z,19.30
2018-06-04T07:10:40.147Z,19.30
2018-06-04T07:11:13.365Z,19.30
2018-06-04T07:11:46.598Z,19.30